Airfield :
LOGIN :

Register | Disclaimer

   EN    FR    IT 

 










Legend :    VFR   Marginal VFR   IFR   Intensive IFR   Very Intensive IFR
Visi :
Ceiling :
>= 8 km
>= 3000ft
5 to 8 km
1000 to 3000 ft
1500m to 5 km
500 to 1000 ft
800 to 1500m
200 to 500 ft
< 800m
< 200 ft
Symbols :   Thunderstorms  Fog  Heavy snow  Heavy precipitations  Wind > 20 kt
SIGMETs :     Misc.  Thunderstorms  Icing  Turbulence  Mountain Waves  Volcanic Ashes






- Airport Elevation : 126 ft
- IATA code : WIC


EGPC - Wick

CURRENT METAR :
  • 142250Z AUTO 27002KT 9999 BKN035/// 11/09 Q1011

EXPIRED METARs :
  • 142220Z AUTO 25003KT 9999 BKN037/// 10/09 Q1012
  • 142150Z AUTO 23003KT 9999 NCD 10/09 Q1012
  • 142120Z AUTO VRB03KT 9999 FEW049/// 11/09 Q1011
  • 142050Z AUTO 30003KT 9999 NCD 11/09 Q1011
  • 142020Z AUTO 34010KT 9999 NCD 12/09 Q1011

TAF TAF EGPC
Valid from the 14 at 21:00 until the 15 at 06:00 UTC


142000Z 1421/1506 31004KT 9999 FEW004 SCT010
TEMPO 1421/1506 6000 -RADZ BKN009
PROB30
TEMPO 1421/1506 3000 RADZ BKN003
ATIS : +44 1955 607 596



MET'MAP, your aeronautical weather chart ! - Copyright ORBIFLY December 2007 - Disclaimer

ORBIFLY MET'MAP TEAM :

Programming & Development : Alexandra Zaïnal
Concept & original design : Baudouin d'Aumeries
Assistance for programming : Marc-Olivier Méhu
Technical & hardware support : Manuel Goepfert

Contact : metmap@orbifly.com




SOURCES & CREDITS :

   NOAA